Time;durP1;ratioP1;P1;durP2;ratioP2;P2;SDS_P1;SDS_P2;PMS_P1;PMS_P2;Temp;Humidity;BMP_temperature;BMP_pressure;BME280_temperature;BME280_humidity;BME280_pressure;Samples;Min_cycle;Max_cycle;Signal;HPM_P1;HPM_P2
2022/05/10 00:01:31;;;;;;;5.83;3.27;;;12.40;99.90;;;;;;5042415;28;20548;-90
2022/05/10 00:04:00;;;;;;;4.67;4.17;;;12.40;99.90;;;;;;5041096;28;20252;-93
2022/05/10 00:06:29;;;;;;;7.20;3.37;;;12.40;99.90;;;;;;5009372;28;20640;-90
2022/05/10 00:08:55;;;;;;;9.87;4.60;;;12.40;99.90;;;;;;5042348;28;20755;-91
2022/05/10 00:11:21;;;;;;;6.23;3.53;;;12.40;99.90;;;;;;5042624;28;25416;-92
2022/05/10 00:13:47;;;;;;;4.80;3.47;;;12.30;99.90;;;;;;5044117;28;20935;-92
2022/05/10 00:16:18;;;;;;;7.83;4.70;;;12.30;99.90;;;;;;5042892;28;20218;-90
2022/05/10 00:18:45;;;;;;;6.30;3.83;;;12.40;99.90;;;;;;5042954;28;20222;-90
2022/05/10 00:21:22;;;;;;;8.00;4.60;;;12.40;99.90;;;;;;5032519;28;20671;-90
2022/05/10 00:23:48;;;;;;;3.80;3.50;;;12.50;99.90;;;;;;5043978;28;20217;-92
2022/05/10 00:26:14;;;;;;;8.90;4.40;;;12.40;99.90;;;;;;5042737;28;20754;-91
2022/05/10 00:28:40;;;;;;;6.20;3.13;;;12.40;99.90;;;;;;5026612;28;20663;-90
2022/05/10 00:31:08;;;;;;;5.33;4.10;;;12.40;99.90;;;;;;5042943;28;20218;-92
2022/05/10 00:33:34;;;;;;;5.80;4.23;;;12.40;99.90;;;;;;5026803;28;20229;-91
2022/05/10 00:36:00;;;;;;;5.90;3.50;;;12.30;99.90;;;;;;5043123;28;20218;-91
2022/05/10 00:38:35;;;;;;;7.73;5.37;;;12.30;99.90;;;;;;5045987;28;20248;-89
2022/05/10 00:41:28;;;;;;;4.27;3.83;;;12.20;99.90;;;;;;5047117;28;20178;-91
2022/05/10 00:44:25;;;;;;;6.17;4.10;;;12.20;99.90;;;;;;5046756;28;20209;-94
2022/05/10 00:47:00;;;;;;;5.93;4.03;;;12.10;99.90;;;;;;5036787;28;20214;-91
2022/05/10 00:49:50;;;;;;;9.93;4.67;;;12.00;99.90;;;;;;5046152;28;20237;-91
2022/05/10 00:52:47;;;;;;;7.93;4.30;;;12.10;99.90;;;;;;5022460;28;1126155;-95
2022/05/10 00:55:19;;;;;;;7.27;3.73;;;12.20;99.90;;;;;;5046857;28;20268;-92
2022/05/10 00:58:16;;;;;;;9.00;3.60;;;12.20;99.90;;;;;;5047331;28;20968;-92
2022/05/10 01:00:43;;;;;;;5.67;3.97;;;12.30;99.90;;;;;;5046259;28;20363;-92
2022/05/10 01:03:31;;;;;;;7.13;4.27;;;12.30;99.90;;;;;;5047611;28;20297;-94
2022/05/10 01:06:30;;;;;;;5.07;3.73;;;12.40;99.90;;;;;;5039095;28;20210;-92
2022/05/10 01:09:15;;;;;;;8.17;4.00;;;12.40;99.90;;;;;;5046201;28;21018;-92
2022/05/10 01:11:53;;;;;;;12.23;4.07;;;12.40;99.90;;;;;;5062626;28;20782;-91
2022/05/10 01:14:39;;;;;;;8.67;4.87;;;12.40;99.90;;;;;;5046046;28;20189;-91
2022/05/10 01:17:07;;;;;;;6.80;4.60;;;12.50;99.90;;;;;;5046341;28;20210;-92
2022/05/10 01:19:36;;;;;;;9.10;4.77;;;12.50;99.90;;;;;;5045300;28;20232;-92
2022/05/10 01:22:26;;;;;;;6.47;5.47;;;12.50;99.90;;;;;;5044850;28;20235;-92
2022/05/10 01:25:27;;;;;;;8.37;4.30;;;12.60;99.90;;;;;;5044615;28;20218;-93
2022/05/10 01:28:28;;;;;;;7.03;4.13;;;12.60;99.90;;;;;;5021049;28;20236;-91
2022/05/10 01:30:57;;;;;;;6.93;4.50;;;12.60;99.90;;;;;;5030655;28;20307;-92
2022/05/10 01:33:35;;;;;;;7.40;3.97;;;12.60;99.90;;;;;;5030456;28;20205;-91
2022/05/10 01:36:11;;;;;;;5.33;4.13;;;12.60;99.90;;;;;;5046289;28;20225;-92
2022/05/10 01:39:06;;;;;;;6.77;4.67;;;12.60;99.90;;;;;;5046138;28;20232;-91
2022/05/10 01:41:52;;;;;;;9.00;4.00;;;12.40;99.90;;;;;;5046100;28;20221;-93
2022/05/10 01:44:26;;;;;;;10.20;5.47;;;12.00;99.90;;;;;;5045668;28;20643;-92
2022/05/10 01:47:02;;;;;;;5.80;4.50;;;11.80;99.90;;;;;;5047930;28;20196;-92
2022/05/10 01:49:50;;;;;;;5.27;4.27;;;11.80;99.90;;;;;;5044573;28;20276;-91
2022/05/10 01:52:42;;;;;;;8.03;6.10;;;11.90;99.90;;;;;;5045439;28;20241;-92
2022/05/10 01:55:33;;;;;;;12.40;5.23;;;11.90;99.90;;;;;;5034315;28;20218;-94
2022/05/10 01:58:03;;;;;;;9.50;5.30;;;11.90;99.90;;;;;;5045506;28;20252;-90
2022/05/10 02:00:30;;;;;;;6.10;4.03;;;11.90;99.90;;;;;;5046238;28;20225;-92
2022/05/10 02:03:11;;;;;;;6.23;4.43;;;12.00;99.90;;;;;;5028999;28;20209;-92
2022/05/10 02:05:49;;;;;;;8.47;4.87;;;12.00;99.90;;;;;;5045765;28;20205;-91
2022/05/10 02:08:56;;;;;;;9.93;5.20;;;11.90;99.90;;;;;;5037881;28;20189;-93
2022/05/10 02:11:23;;;;;;;8.80;5.97;;;12.00;99.90;;;;;;5043818;28;20268;-92
2022/05/10 02:13:54;;;;;;;10.10;6.17;;;12.20;99.90;;;;;;5028083;28;21107;-93
2022/05/10 02:16:32;;;;;;;9.53;5.20;;;12.30;99.90;;;;;;5045437;28;20738;-91
2022/05/10 02:19:07;;;;;;;10.77;6.40;;;12.40;99.90;;;;;;5045550;28;20252;-91
2022/05/10 02:21:39;;;;;;;16.03;6.90;;;12.50;99.90;;;;;;5036690;28;20328;-92
2022/05/10 02:24:15;;;;;;;9.37;6.80;;;12.60;99.90;;;;;;5046814;28;20210;-94
2022/05/10 02:26:49;;;;;;;6.70;5.47;;;12.60;99.90;;;;;;5046071;28;20209;-92
2022/05/10 02:29:45;;;;;;;7.47;5.80;;;12.60;99.90;;;;;;5045467;28;20228;-91
2022/05/10 02:35:11;;;;;;;14.60;7.27;;;12.60;99.90;;;;;;5046645;28;20186;-95
2022/05/10 02:37:37;;;;;;;8.80;6.00;;;12.60;99.90;;;;;;5045876;28;20192;-95
2022/05/10 02:40:07;;;;;;;10.37;7.40;;;12.60;99.90;;;;;;5043805;28;20234;-91
2022/05/10 02:42:34;;;;;;;11.03;5.87;;;12.70;99.90;;;;;;5028498;28;20260;-91
2022/05/10 02:45:01;;;;;;;11.30;7.17;;;12.80;99.90;;;;;;5021795;28;20209;-92
2022/05/10 02:47:33;;;;;;;14.27;7.07;;;12.80;99.90;;;;;;5027955;28;20283;-93
2022/05/10 02:49:59;;;;;;;11.13;6.70;;;12.80;99.90;;;;;;5046694;28;20220;-92
2022/05/10 02:52:26;;;;;;;11.60;7.00;;;12.90;99.90;;;;;;5028201;28;20332;-92
2022/05/10 02:55:00;;;;;;;9.03;6.03;;;12.90;99.90;;;;;;5044979;28;20229;-91
2022/05/10 02:57:26;;;;;;;14.17;7.23;;;12.90;99.90;;;;;;5036060;28;20303;-92
2022/05/10 02:59:55;;;;;;;9.37;5.93;;;12.90;99.90;;;;;;5044460;28;20662;-90
2022/05/10 03:02:34;;;;;;;11.80;7.27;;;13.00;99.90;;;;;;5044844;28;21151;-91
2022/05/10 03:05:00;;;;;;;9.40;6.67;;;13.00;99.90;;;;;;5046424;28;20174;-91
2022/05/10 03:07:29;;;;;;;11.40;7.40;;;13.10;99.90;;;;;;5017156;28;20213;-93
2022/05/10 03:10:00;;;;;;;10.37;6.87;;;13.20;99.90;;;;;;5045113;28;20242;-91
2022/05/10 03:12:28;;;;;;;7.87;5.57;;;13.20;99.90;;;;;;5044689;28;20213;-91
2022/05/10 03:14:54;;;;;;;8.57;6.70;;;13.30;99.90;;;;;;5044249;28;20828;-91
2022/05/10 03:17:22;;;;;;;12.03;6.80;;;13.30;99.90;;;;;;5046189;28;20272;-91
2022/05/10 03:20:01;;;;;;;;;;;;;;;;;;;;;
2022/05/10 03:22:30;;;;;;;9.23;5.90;;;13.40;99.90;;;;;;5045001;28;20271;-94
2022/05/10 03:24:56;;;;;;;10.90;6.43;;;13.40;99.90;;;;;;5027905;28;20222;-90
2022/05/10 03:27:24;;;;;;;8.77;5.67;;;13.50;99.90;;;;;;5044196;28;20287;-91
2022/05/10 03:29:57;;;;;;;9.37;6.53;;;13.40;99.90;;;;;;5044804;28;20293;-93
2022/05/10 03:32:30;;;;;;;11.90;5.60;;;13.40;99.90;;;;;;5045891;28;20555;-90
2022/05/10 03:34:58;;;;;;;7.47;5.07;;;13.40;99.90;;;;;;5047301;28;20202;-91
2022/05/10 03:37:36;;;;;;;12.80;5.87;;;13.40;99.90;;;;;;5045253;28;20400;-92
2022/05/10 03:40:05;;;;;;;7.63;5.73;;;13.60;99.90;;;;;;5046127;28;20217;-91
2022/05/10 03:42:33;;;;;;;8.07;5.70;;;13.70;99.90;;;;;;5051628;28;20221;-91
2022/05/10 03:45:01;;;;;;;8.63;6.17;;;13.80;99.90;;;;;;5045784;28;20607;-91
2022/05/10 03:47:28;;;;;;;7.00;6.00;;;13.90;99.90;;;;;;5046029;28;20275;-92
2022/05/10 03:49:56;;;;;;;11.77;5.97;;;14.00;99.90;;;;;;5047444;28;20529;-91
2022/05/10 03:52:27;;;;;;;12.67;6.57;;;14.10;99.90;;;;;;5046217;28;20272;-91
2022/05/10 03:54:55;;;;;;;10.87;6.17;;;14.10;99.90;;;;;;5028396;28;20218;-91
2022/05/10 03:57:23;;;;;;;7.67;4.83;;;14.20;99.90;;;;;;5044565;28;20307;-90
2022/05/10 03:59:49;;;;;;;10.30;6.90;;;14.30;99.90;;;;;;5028120;28;20245;-90
2022/05/10 04:02:16;;;;;;;9.17;5.60;;;14.40;99.90;;;;;;5044934;28;21087;-91
2022/05/10 04:04:42;;;;;;;8.63;6.10;;;14.40;99.90;;;;;;5044093;28;20182;-90
2022/05/10 04:07:11;;;;;;;7.53;5.20;;;14.50;99.90;;;;;;5043601;28;20539;-90
2022/05/10 04:09:40;;;;;;;8.70;6.43;;;14.50;99.90;;;;;;5059535;28;20232;-90
2022/05/10 04:12:07;;;;;;;12.00;6.00;;;14.60;99.90;;;;;;5046617;28;20214;-93
2022/05/10 04:14:38;;;;;;;11.77;5.97;;;14.60;99.90;;;;;;5049704;28;20209;-91
2022/05/10 04:17:08;;;;;;;6.80;5.77;;;14.60;99.90;;;;;;5049250;28;20304;-91
2022/05/10 04:19:34;;;;;;;10.57;5.70;;;14.70;99.90;;;;;;5048842;28;20185;-91
2022/05/10 04:22:10;;;;;;;9.73;6.20;;;14.70;99.90;;;;;;5048711;28;20264;-90
2022/05/10 04:24:40;;;;;;;11.73;6.70;;;14.70;99.90;;;;;;5049032;28;20214;-90
2022/05/10 04:27:06;;;;;;;9.67;5.53;;;14.70;99.90;;;;;;5033278;28;20596;-91
2022/05/10 04:29:32;;;;;;;8.07;6.20;;;14.80;99.90;;;;;;5048343;28;20234;-91
2022/05/10 04:31:58;;;;;;;9.97;6.70;;;14.80;99.90;;;;;;5048181;28;20205;-90
2022/05/10 04:34:29;;;;;;;12.40;5.73;;;14.80;99.90;;;;;;5049741;28;20210;-91
2022/05/10 04:36:55;;;;;;;12.50;5.80;;;14.80;99.90;;;;;;5065567;28;20267;-92
2022/05/10 04:39:24;;;;;;;9.17;6.20;;;14.80;99.90;;;;;;5049119;28;20226;-92
2022/05/10 04:41:53;;;;;;;7.67;5.43;;;14.80;99.90;;;;;;5040518;28;20227;-92
2022/05/10 04:44:21;;;;;;;7.20;5.47;;;14.90;99.90;;;;;;5049021;28;20193;-92
2022/05/10 04:46:49;;;;;;;9.63;5.97;;;15.00;99.90;;;;;;5050470;28;20185;-93
2022/05/10 04:49:17;;;;;;;15.80;5.47;;;15.00;99.90;;;;;;5023565;28;20236;-91
2022/05/10 04:51:46;;;;;;;10.17;5.40;;;15.00;99.90;;;;;;5048531;28;20220;-93
2022/05/10 04:54:11;;;;;;;7.90;4.70;;;15.10;99.90;;;;;;5047054;28;20233;-92
2022/05/10 04:56:40;;;;;;;7.27;4.83;;;15.10;99.90;;;;;;5047989;28;20357;-91
2022/05/10 04:59:08;;;;;;;6.10;4.90;;;15.10;99.90;;;;;;5028560;28;20312;-92
2022/05/10 05:01:34;;;;;;;8.87;5.67;;;15.20;99.90;;;;;;5048573;28;20190;-90
2022/05/10 05:04:01;;;;;;;8.30;5.93;;;15.20;99.90;;;;;;5053034;28;20210;-90
2022/05/10 05:06:29;;;;;;;8.33;5.13;;;15.30;99.90;;;;;;5049538;28;20488;-88
2022/05/10 05:08:56;;;;;;;10.10;5.03;;;15.30;99.90;;;;;;5044842;28;20304;-89
2022/05/10 05:11:22;;;;;;;10.70;5.60;;;15.40;99.90;;;;;;5031217;28;20379;-90
2022/05/10 05:13:50;;;;;;;8.97;5.57;;;15.40;99.90;;;;;;4998466;28;20232;-93
2022/05/10 05:16:18;;;;;;;7.07;4.90;;;15.40;99.90;;;;;;5028194;28;20796;-94
2022/05/10 05:18:47;;;;;;;9.67;5.67;;;15.50;99.90;;;;;;5046436;28;20268;-91
2022/05/10 05:21:13;;;;;;;8.67;5.80;;;15.50;99.90;;;;;;5030333;28;20771;-90
2022/05/10 05:23:38;;;;;;;8.67;5.73;;;15.60;99.90;;;;;;5028641;28;20562;-92
2022/05/10 05:26:04;;;;;;;11.20;6.20;;;15.60;99.90;;;;;;5045826;28;20639;-89
2022/05/10 05:28:30;;;;;;;8.67;5.23;;;15.70;99.90;;;;;;5061769;28;20190;-86
2022/05/10 05:30:57;;;;;;;8.20;4.60;;;15.80;99.90;;;;;;5045186;28;20739;-87
2022/05/10 05:33:23;;;;;;;9.30;4.97;;;15.80;99.90;;;;;;5045317;28;20220;-86
2022/05/10 05:35:48;;;;;;;6.83;4.97;;;15.80;99.90;;;;;;5044139;28;20568;-88
2022/05/10 05:38:14;;;;;;;8.33;4.73;;;15.90;99.90;;;;;;5027280;28;20661;-87
2022/05/10 05:40:40;;;;;;;8.50;4.90;;;16.00;99.90;;;;;;5026818;28;20189;-89
2022/05/10 05:43:07;;;;;;;8.70;5.10;;;16.10;99.90;;;;;;5006396;28;20229;-87
2022/05/10 05:45:33;;;;;;;6.67;4.57;;;16.20;99.90;;;;;;5021718;28;20237;-91
2022/05/10 05:47:59;;;;;;;10.93;4.77;;;16.30;99.90;;;;;;5043468;28;20229;-88
2022/05/10 05:50:25;;;;;;;6.77;4.90;;;16.30;99.90;;;;;;5028497;28;20233;-87
2022/05/10 05:52:52;;;;;;;7.53;4.83;;;16.30;99.90;;;;;;5045340;28;20925;-88
2022/05/10 05:55:19;;;;;;;8.77;5.10;;;16.40;99.90;;;;;;5044678;28;20263;-86
2022/05/10 05:57:45;;;;;;;8.53;4.23;;;16.40;99.90;;;;;;5028588;28;20229;-87
2022/05/10 06:00:16;;;;;;;14.33;5.00;;;16.50;99.90;;;;;;5061549;28;20698;-86
2022/05/10 06:02:42;;;;;;;13.80;6.03;;;16.60;99.90;;;;;;5043882;28;20209;-86
2022/05/10 06:05:09;;;;;;;7.90;4.43;;;16.60;99.90;;;;;;5045214;28;20197;-88
2022/05/10 06:07:35;;;;;;;7.00;4.80;;;16.60;99.90;;;;;;5006101;28;20189;-91
2022/05/10 06:10:00;;;;;;;6.57;4.57;;;16.60;99.90;;;;;;5021827;28;20279;-87
2022/05/10 06:12:26;;;;;;;8.13;4.50;;;16.50;99.90;;;;;;5027635;28;20265;-89
2022/05/10 06:14:52;;;;;;;8.43;4.77;;;16.50;99.90;;;;;;5044715;28;20229;-90
2022/05/10 06:17:18;;;;;;;8.67;5.77;;;16.50;99.90;;;;;;5028717;28;20182;-91
2022/05/10 06:19:45;;;;;;;11.23;5.87;;;16.50;99.90;;;;;;5047695;28;20186;-87
2022/05/10 06:22:13;;;;;;;6.77;4.13;;;16.50;99.90;;;;;;5031463;28;20209;-88
2022/05/10 06:24:40;;;;;;;11.67;5.53;;;16.60;99.90;;;;;;5064319;28;20321;-88
2022/05/10 06:27:10;;;;;;;7.43;5.73;;;16.60;99.90;;;;;;5012355;28;20225;-91
2022/05/10 06:29:36;;;;;;;8.23;4.97;;;16.60;99.90;;;;;;5043318;28;20226;-89
2022/05/10 06:32:02;;;;;;;8.13;5.40;;;16.70;99.90;;;;;;5046164;28;20236;-88
2022/05/10 06:34:31;;;;;;;14.30;5.43;;;16.70;99.90;;;;;;5003225;28;20580;-94
2022/05/10 06:36:57;;;;;;;10.17;4.37;;;16.70;99.90;;;;;;5023848;28;20222;-87
2022/05/10 06:39:23;;;;;;;9.23;5.63;;;16.70;99.90;;;;;;5027572;28;20674;-89
2022/05/10 06:41:48;;;;;;;7.57;5.13;;;16.80;99.90;;;;;;5045290;28;20561;-91
2022/05/10 06:44:14;;;;;;;6.40;4.10;;;16.70;99.90;;;;;;5028636;28;20185;-91
2022/05/10 06:46:43;;;;;;;8.93;3.83;;;16.80;99.90;;;;;;5044618;28;20190;-88
2022/05/10 06:49:09;;;;;;;7.70;4.30;;;16.80;99.90;;;;;;5034366;28;20265;-91
2022/05/10 06:51:39;;;;;;;6.23;5.00;;;16.90;99.90;;;;;;5011324;28;21006;-91
2022/05/10 06:54:06;;;;;;;6.43;4.77;;;17.00;99.90;;;;;;5060741;28;20288;-87
2022/05/10 06:56:32;;;;;;;5.80;4.30;;;17.10;99.90;;;;;;5027706;28;20217;-93
2022/05/10 06:58:57;;;;;;;7.57;4.73;;;17.10;99.90;;;;;;5012375;28;20196;-88
2022/05/10 07:01:23;;;;;;;6.23;4.20;;;17.20;99.90;;;;;;5045047;28;20230;-87
2022/05/10 07:03:51;;;;;;;7.43;4.37;;;17.00;99.90;;;;;;5043676;28;20706;-89
2022/05/10 07:06:22;;;;;;;9.47;5.73;;;16.80;99.90;;;;;;5027674;28;20228;-91
2022/05/10 07:08:48;;;;;;;6.57;4.73;;;16.60;99.90;;;;;;5044788;28;20216;-88
2022/05/10 07:11:14;;;;;;;5.07;4.40;;;16.60;99.90;;;;;;5027825;28;20656;-88
2022/05/10 07:13:40;;;;;;;9.53;6.40;;;16.50;99.90;;;;;;5044062;28;20186;-88
2022/05/10 07:16:06;;;;;;;8.27;5.63;;;16.60;99.90;;;;;;5043837;28;20217;-89
2022/05/10 07:18:32;;;;;;;7.10;4.73;;;16.70;99.90;;;;;;5032274;28;20268;-92
2022/05/10 07:20:57;;;;;;;7.13;4.77;;;16.70;99.90;;;;;;5033667;28;20218;-90
2022/05/10 07:23:30;;;;;;;6.10;4.37;;;16.80;99.90;;;;;;5050667;28;20190;-89
2022/05/10 07:25:57;;;;;;;7.20;4.97;;;16.80;99.90;;;;;;5049811;28;20174;-90
2022/05/10 07:28:24;;;;;;;7.27;4.43;;;16.90;99.90;;;;;;5034218;28;20215;-92
2022/05/10 07:30:49;;;;;;;12.23;4.60;;;17.00;99.90;;;;;;5034623;28;20246;-91
2022/05/10 07:33:19;;;;;;;6.43;4.33;;;17.20;99.90;;;;;;5023664;28;20214;-91
2022/05/10 07:38:38;;;;;;;12.17;5.17;;;17.40;99.90;;;;;;5049505;28;20288;-91
2022/05/10 07:41:13;;;;;;;7.27;4.33;;;17.60;99.90;;;;;;5048922;28;20297;-91
2022/05/10 07:43:40;;;;;;;5.80;4.37;;;17.70;99.90;;;;;;5035643;28;20595;-90
2022/05/10 07:46:07;;;;;;;8.93;3.77;;;17.80;99.90;;;;;;5047201;28;20248;-90
2022/05/10 07:48:33;;;;;;;8.53;4.60;;;18.00;99.90;;;;;;5066372;28;20213;-88
2022/05/10 07:51:01;;;;;;;10.50;3.87;;;18.10;99.90;;;;;;5034965;28;20568;-90
2022/05/10 07:53:28;;;;;;;6.67;3.50;;;18.20;99.90;;;;;;5026834;28;20225;-91
2022/05/10 07:55:53;;;;;;;9.77;4.27;;;18.30;99.90;;;;;;5049422;28;20222;-91
2022/05/10 07:58:22;;;;;;;5.27;4.33;;;18.60;99.90;;;;;;5048225;28;20256;-90
2022/05/10 08:00:47;;;;;;;9.20;4.80;;;18.70;99.90;;;;;;5034484;28;20539;-86
2022/05/10 08:03:19;;;;;;;8.53;4.63;;;18.80;99.90;;;;;;5049342;28;20214;-90
2022/05/10 08:05:45;;;;;;;13.60;4.53;;;19.00;99.90;;;;;;5053085;28;20647;-88
2022/05/10 08:08:17;;;;;;;6.30;4.40;;;19.10;99.90;;;;;;5036112;28;20186;-89
2022/05/10 08:10:44;;;;;;;7.07;5.30;;;19.20;99.90;;;;;;5037574;28;20209;-89
2022/05/10 08:13:15;;;;;;;7.00;5.07;;;19.40;99.90;;;;;;5052527;28;20213;-92
2022/05/10 08:15:41;;;;;;;9.40;4.63;;;19.60;99.90;;;;;;5051793;28;20217;-89
2022/05/10 08:18:08;;;;;;;5.60;3.70;;;19.60;99.90;;;;;;5036531;28;20214;-89
2022/05/10 08:20:36;;;;;;;7.40;4.80;;;19.60;99.90;;;;;;5054143;28;20567;-88
2022/05/10 08:23:02;;;;;;;8.27;4.03;;;19.60;99.90;;;;;;5053038;28;20193;-89
2022/05/10 08:25:28;;;;;;;6.67;4.27;;;19.70;99.90;;;;;;5034362;28;20193;-89
2022/05/10 08:27:54;;;;;;;10.73;5.40;;;19.70;99.90;;;;;;5033380;28;20222;-87
2022/05/10 08:30:22;;;;;;;9.87;5.00;;;19.70;99.90;;;;;;5030560;28;20308;-89
2022/05/10 08:32:57;;;;;;;7.60;4.07;;;19.90;99.90;;;;;;5043539;28;20292;-92
2022/05/10 08:35:23;;;;;;;7.37;4.40;;;20.10;99.90;;;;;;5049265;28;20220;-91
2022/05/10 08:37:51;;;;;;;5.70;3.97;;;20.50;99.90;;;;;;5052247;28;20197;-89
2022/05/10 08:40:32;;;;;;;5.50;3.90;;;20.70;99.90;;;;;;5053831;28;20230;-92
2022/05/10 08:43:03;;;;;;;7.33;4.20;;;21.00;99.90;;;;;;5042793;28;20636;-91
2022/05/10 08:45:31;;;;;;;4.47;3.07;;;21.10;99.90;;;;;;5050630;28;20280;-90
2022/05/10 08:47:57;;;;;;;5.03;3.73;;;21.30;99.90;;;;;;5041125;28;20281;-92
2022/05/10 08:50:23;;;;;;;6.17;4.30;;;21.10;99.90;;;;;;5034553;28;20317;-89
2022/05/10 08:52:52;;;;;;;11.50;4.53;;;21.00;99.90;;;;;;5051087;28;20241;-89
2022/05/10 08:55:27;;;;;;;5.03;4.30;;;20.80;99.90;;;;;;5032173;28;20507;-90
2022/05/10 08:58:04;;;;;;;6.37;3.87;;;20.50;99.90;;;;;;5066160;28;20237;-89
2022/05/10 09:00:47;;;;;;;7.03;4.47;;;20.50;99.90;;;;;;5068327;28;20743;-89
2022/05/10 09:03:40;;;;;;;4.13;3.70;;;20.50;99.90;;;;;;5049028;28;20282;-88
2022/05/10 09:06:11;;;;;;;5.60;4.10;;;20.40;99.90;;;;;;5050317;28;20312;-90
2022/05/10 09:09:00;;;;;;;6.00;3.60;;;20.50;99.90;;;;;;5048956;28;20222;-90
2022/05/10 09:11:33;;;;;;;6.10;4.50;;;20.60;99.90;;;;;;5064936;28;20264;-89
2022/05/10 09:13:58;;;;;;;10.77;4.40;;;20.60;99.90;;;;;;5046664;28;21174;-90
2022/05/10 09:16:24;;;;;;;7.63;4.87;;;20.80;99.90;;;;;;5051649;28;20301;-89
2022/05/10 09:18:53;;;;;;;6.20;4.90;;;21.00;99.90;;;;;;5016020;28;20854;-93
2022/05/10 09:21:26;;;;;;;8.93;4.20;;;21.20;99.90;;;;;;5049324;28;20226;-89
2022/05/10 09:24:13;;;;;;;7.33;4.93;;;21.30;99.90;;;;;;5051648;28;20206;-89
2022/05/10 09:26:45;;;;;;;12.33;5.07;;;21.10;99.90;;;;;;5050636;28;20224;-88
2022/05/10 09:29:32;;;;;;;5.87;4.13;;;20.80;99.90;;;;;;5048506;28;20198;-89
2022/05/10 09:35:01;;;;;;;11.47;5.00;;;20.80;99.90;;;;;;5049939;28;20264;-89
2022/05/10 09:37:35;;;;;;;8.23;5.10;;;20.80;99.90;;;;;;5066644;28;20205;-92
2022/05/10 09:40:19;;;;;;;5.37;4.73;;;21.00;99.90;;;;;;5067123;28;20212;-90
2022/05/10 09:42:49;;;;;;;7.90;5.23;;;21.00;99.90;;;;;;5049328;28;20224;-91
2022/05/10 09:45:20;;;;;;;9.60;4.63;;;21.00;99.90;;;;;;5065385;28;20352;-89
2022/05/10 09:47:58;;;;;;;6.20;4.77;;;21.00;99.90;;;;;;5064106;28;20210;-91
2022/05/10 09:50:41;;;;;;;6.80;4.40;;;20.80;99.90;;;;;;5049557;28;20300;-89
2022/05/10 09:53:36;;;;;;;10.83;4.83;;;20.90;99.90;;;;;;5051371;28;20225;-90
2022/05/10 09:56:10;;;;;;;11.70;6.10;;;21.00;99.90;;;;;;5047031;28;20252;-89
2022/05/10 09:58:51;;;;;;;9.37;5.83;;;21.10;99.90;;;;;;5047635;28;20197;-93
2022/05/10 10:01:37;;;;;;;14.30;5.00;;;21.10;99.90;;;;;;5048146;28;20968;-90
2022/05/10 10:04:23;;;;;;;8.60;5.60;;;21.10;99.90;;;;;;5047093;28;20321;-90
2022/05/10 10:07:16;;;;;;;9.77;6.07;;;21.00;99.90;;;;;;5047462;28;20241;-89
2022/05/10 10:09:55;;;;;;;9.30;5.70;;;21.10;99.90;;;;;;5046964;28;20264;-90
2022/05/10 10:12:31;;;;;;;13.73;5.00;;;21.00;99.90;;;;;;5065142;28;20225;-94
2022/05/10 10:14:58;;;;;;;9.83;5.67;;;21.00;99.90;;;;;;5047287;28;20221;-90
2022/05/10 10:17:34;;;;;;;8.23;5.33;;;21.10;99.90;;;;;;5047559;28;20226;-91
2022/05/10 10:20:47;;;;;;;7.03;4.17;;;21.10;99.90;;;;;;5049398;28;20178;-91
2022/05/10 10:23:32;;;;;;;8.23;4.53;;;21.10;99.90;;;;;;5031258;28;20230;-91
2022/05/10 10:26:23;;;;;;;7.93;3.97;;;21.10;99.90;;;;;;5048078;28;20182;-92
2022/05/10 10:28:58;;;;;;;8.07;5.17;;;21.10;99.90;;;;;;5064722;28;20210;-89
2022/05/10 10:31:38;;;;;;;6.73;4.07;;;21.10;99.90;;;;;;5049124;28;20236;-90
2022/05/10 10:34:19;;;;;;;9.00;4.17;;;21.20;99.90;;;;;;5046150;28;20217;-91
2022/05/10 10:37:20;;;;;;;5.00;3.90;;;21.10;99.90;;;;;;5047403;28;20225;-92
2022/05/10 10:39:49;;;;;;;5.23;3.27;;;20.90;99.90;;;;;;5047253;28;20585;-92
2022/05/10 10:42:33;;;;;;;7.37;3.67;;;20.90;99.90;;;;;;5045499;28;20213;-88
2022/05/10 10:45:01;;;;;;;8.13;3.43;;;21.10;99.90;;;;;;5045870;28;20218;-90
2022/05/10 10:47:34;;;;;;;10.03;3.90;;;21.20;99.90;;;;;;5030179;28;20296;-89
2022/05/10 10:50:31;;;;;;;9.83;3.47;;;21.10;99.90;;;;;;5045829;28;20213;-87
2022/05/10 10:52:58;;;;;;;7.13;2.90;;;21.30;99.90;;;;;;5029956;28;20230;-87
2022/05/10 10:55:36;;;;;;;8.10;3.30;;;21.40;99.90;;;;;;5046999;28;20235;-88
2022/05/10 10:58:14;;;;;;;8.90;3.03;;;21.20;99.90;;;;;;5044128;28;20252;-90
2022/05/10 11:00:56;;;;;;;4.37;2.67;;;21.10;99.90;;;;;;5046750;28;20305;-89
2022/05/10 11:03:38;;;;;;;8.13;2.97;;;20.80;99.90;;;;;;5045275;28;20221;-87
2022/05/10 11:06:17;;;;;;;6.90;2.87;;;20.80;99.90;;;;;;5044562;28;20263;-86
2022/05/10 11:09:00;;;;;;;2.77;2.50;;;21.00;99.90;;;;;;5043429;28;20229;-89
2022/05/10 11:11:53;;;;;;;3.63;2.73;;;21.10;99.90;;;;;;5042516;28;20223;-88
2022/05/10 11:14:38;;;;;;;3.67;2.40;;;21.20;99.90;;;;;;5046624;28;20174;-90
2022/05/10 11:17:19;;;;;;;3.17;2.63;;;21.40;99.90;;;;;;5044893;28;20231;-89
2022/05/10 11:20:14;;;;;;;5.87;2.60;;;21.40;99.90;;;;;;5045555;28;20204;-86
2022/05/10 11:22:52;;;;;;;4.83;3.10;;;21.30;99.90;;;;;;5045599;28;20655;-88
2022/05/10 11:25:41;;;;;;;4.07;2.90;;;21.40;99.90;;;;;;5044025;28;20210;-87
2022/05/10 11:28:24;;;;;;;3.10;2.53;;;21.40;99.90;;;;;;5033041;28;20209;-85
2022/05/10 11:31:15;;;;;;;3.10;2.47;;;21.10;99.90;;;;;;5045146;28;20283;-86
2022/05/10 11:34:02;;;;;;;3.73;2.30;;;21.20;99.90;;;;;;5041716;28;20671;-87
2022/05/10 11:36:43;;;;;;;3.77;2.17;;;20.80;99.90;;;;;;5042899;28;20202;-86
2022/05/10 11:39:35;;;;;;;3.47;2.20;;;20.70;99.90;;;;;;5061710;28;20229;-85
2022/05/10 11:42:26;;;;;;;3.30;1.93;;;20.80;99.90;;;;;;5043211;28;20683;-93
2022/05/10 11:45:20;;;;;;;2.40;2.20;;;20.80;99.90;;;;;;5036489;28;20253;-88
2022/05/10 11:47:58;;;;;;;3.07;2.00;;;20.90;99.90;;;;;;5044645;28;20608;-88
2022/05/10 11:50:33;;;;;;;6.73;1.80;;;20.90;99.90;;;;;;5047706;28;20847;-87
2022/05/10 11:53:28;;;;;;;3.67;1.90;;;21.10;99.90;;;;;;5043518;28;20233;-93
2022/05/10 11:55:59;;;;;;;2.33;1.87;;;21.90;99.90;;;;;;5047147;28;20246;-87
2022/05/10 11:58:27;;;;;;;2.10;1.90;;;21.50;99.90;;;;;;5043908;28;20349;-91
2022/05/10 12:00:58;;;;;;;5.53;2.47;;;21.10;99.90;;;;;;5044735;28;20230;-88
2022/05/10 12:03:36;;;;;;;1.57;1.40;;;21.10;99.90;;;;;;5046674;28;20217;-87
2022/05/10 12:06:24;;;;;;;4.27;2.00;;;20.90;99.90;;;;;;5045248;28;20234;-86
2022/05/10 12:08:54;;;;;;;1.57;1.20;;;20.50;99.90;;;;;;5045818;28;20340;-87
2022/05/10 12:11:28;;;;;;;5.90;1.77;;;20.70;99.90;;;;;;5045063;28;20269;-89
2022/05/10 12:22:58;;;;;;;3.07;1.97;;;19.80;99.90;;;;;;5046644;28;20206;-87
2022/05/10 12:25:57;;;;;;;5.47;2.17;;;19.30;99.90;;;;;;5044930;28;20221;-86
2022/05/10 12:28:47;;;;;;;7.43;2.50;;;19.00;99.90;;;;;;5043199;28;20218;-88
2022/05/10 12:31:24;;;;;;;5.77;2.57;;;19.10;99.90;;;;;;5047582;28;20222;-89
2022/05/10 12:33:59;;;;;;;2.63;2.43;;;18.90;99.90;;;;;;5051060;28;20214;-87
2022/05/10 12:36:34;;;;;;;2.53;2.10;;;19.00;99.90;;;;;;5047752;28;20257;-90
2022/05/10 12:39:21;;;;;;;3.83;2.40;;;18.80;99.90;;;;;;5048943;28;20241;-88
2022/05/10 12:42:05;;;;;;;2.50;2.27;;;18.90;99.90;;;;;;5048971;28;20222;-89
2022/05/10 12:44:58;;;;;;;6.70;2.00;;;19.00;99.90;;;;;;5049990;28;20263;-85
2022/05/10 12:47:45;;;;;;;3.10;2.07;;;19.10;99.90;;;;;;5049807;28;20309;-92
2022/05/10 12:50:36;;;;;;;6.60;2.03;;;19.00;99.90;;;;;;5066975;28;20210;-86
2022/05/10 12:53:26;;;;;;;2.43;1.50;;;19.10;99.90;;;;;;5046576;28;20229;-85
2022/05/10 12:56:12;;;;;;;4.43;2.93;;;19.00;99.90;;;;;;5062692;28;20194;-88
2022/05/10 12:58:43;;;;;;;6.50;1.93;;;19.00;99.90;;;;;;5048100;28;20391;-89
2022/05/10 13:01:12;;;;;;;2.87;2.27;;;19.10;99.90;;;;;;5048045;28;20225;-87
2022/05/10 13:03:46;;;;;;;4.27;2.00;;;19.20;99.90;;;;;;5048159;28;20214;-89
2022/05/10 13:06:48;;;;;;;5.27;2.40;;;19.00;99.90;;;;;;5048897;28;20226;-88
2022/05/10 13:09:37;;;;;;;7.97;2.87;;;19.00;99.90;;;;;;5045160;28;20316;-89
2022/05/10 13:12:11;;;;;;;4.63;2.60;;;18.90;99.90;;;;;;5050199;28;20663;-89
2022/05/10 13:14:44;;;;;;;1.80;1.60;;;19.00;99.90;;;;;;5049549;28;20734;-88
2022/05/10 13:17:25;;;;;;;2.87;1.97;;;18.90;99.90;;;;;;5051530;28;20621;-89
2022/05/10 13:19:52;;;;;;;4.37;2.37;;;18.80;99.90;;;;;;5048922;28;20182;-89
2022/05/10 13:22:20;;;;;;;6.60;3.10;;;18.50;99.90;;;;;;5014201;28;20221;-86
2022/05/10 13:24:53;;;;;;;4.50;1.67;;;18.20;99.90;;;;;;5063839;28;20557;-87
2022/05/10 13:27:43;;;;;;;6.43;2.73;;;18.10;99.90;;;;;;5050107;28;20245;-87
2022/05/10 13:30:08;;;;;;;3.53;3.00;;;17.90;99.90;;;;;;5049566;28;20682;-91
2022/05/10 13:32:49;;;;;;;6.03;2.33;;;18.00;99.90;;;;;;5046404;28;20560;-84
2022/05/10 13:35:20;;;;;;;2.50;1.87;;;18.00;99.90;;;;;;5047028;28;20264;-85
2022/05/10 13:38:05;;;;;;;2.73;2.03;;;18.00;99.90;;;;;;5046713;28;20189;-88